Terminal Aerodrome Forecast
Issued by NWS Memphis, TN

Home | Current Version | Previous Version | Text Only | Print | Product List | Glossary On
Versions: 1 2 3 4 5 6 7 8 9 10 11 12 13
000
FTUS44 KMEG 110802 AAA
TAFMKL
TAF AMD
KMKL 110802Z 1108/1206 16008KT P6SM BKN060 OVC100
     FM110900 16010KT P6SM OVC050
     FM111800 17010G20KT P6SM OVC040
     FM120300 19012KT P6SM SHRA OVC020=

USA.gov is the U.S. government's official web portal to all federal, state and local government web resources and services.